createdAt,value
2023-05-07T00:00:20.163Z,15.90
2023-05-07T00:02:47.624Z,15.90
2023-05-07T00:05:15.648Z,15.90
2023-05-07T00:07:42.643Z,15.90
2023-05-07T00:10:11.261Z,15.80
2023-05-07T00:12:38.128Z,15.80
2023-05-07T00:15:05.897Z,15.80
2023-05-07T00:17:33.622Z,15.80
2023-05-07T00:20:00.668Z,15.80
2023-05-07T00:22:27.530Z,15.90
2023-05-07T00:24:54.242Z,15.80
2023-05-07T00:27:20.882Z,15.90
2023-05-07T00:29:47.563Z,15.90
2023-05-07T00:32:14.293Z,15.90
2023-05-07T00:34:41.333Z,15.70
2023-05-07T00:37:10.939Z,15.80
2023-05-07T00:39:37.569Z,15.80
2023-05-07T00:42:05.432Z,15.80
2023-05-07T00:44:32.043Z,15.70
2023-05-07T00:46:58.976Z,15.80
2023-05-07T00:49:39.699Z,15.70
2023-05-07T00:52:08.846Z,15.70
2023-05-07T00:54:36.615Z,15.80
2023-05-07T00:57:04.747Z,15.80
2023-05-07T00:59:33.409Z,15.70
2023-05-07T01:02:00.427Z,15.70
2023-05-07T01:04:27.633Z,15.60
2023-05-07T01:06:57.404Z,15.60
2023-05-07T01:09:26.122Z,15.60
2023-05-07T01:11:54.311Z,15.60
2023-05-07T01:14:21.479Z,15.60
2023-05-07T01:16:49.378Z,15.60
2023-05-07T01:19:19.353Z,15.50
2023-05-07T01:21:49.893Z,15.60
2023-05-07T01:24:19.517Z,15.60
2023-05-07T01:26:46.244Z,15.60
2023-05-07T01:29:15.443Z,15.60
2023-05-07T01:31:44.153Z,15.60
2023-05-07T01:34:13.386Z,15.60
2023-05-07T01:36:41.797Z,15.50
2023-05-07T01:39:10.506Z,15.50
2023-05-07T01:41:37.714Z,15.50
2023-05-07T01:44:05.621Z,15.50
2023-05-07T01:46:33.610Z,15.40
2023-05-07T01:49:00.508Z,15.40
2023-05-07T01:51:27.948Z,15.50
2023-05-07T01:53:56.458Z,15.50
2023-05-07T01:56:23.496Z,15.40
2023-05-07T01:58:52.026Z,15.50
2023-05-07T02:01:19.238Z,15.50
2023-05-07T02:03:46.325Z,15.60
2023-05-07T02:06:21.115Z,15.60
2023-05-07T02:08:48.333Z,15.70
2023-05-07T02:11:16.006Z,15.70
2023-05-07T02:13:42.837Z,15.60
2023-05-07T02:16:09.572Z,15.60
2023-05-07T02:18:36.858Z,15.60
2023-05-07T02:21:03.686Z,15.50
2023-05-07T02:23:30.578Z,15.50
2023-05-07T02:25:57.625Z,15.40
2023-05-07T02:28:24.628Z,15.40
2023-05-07T02:31:01.845Z,15.30
2023-05-07T02:33:29.670Z,15.30
2023-05-07T02:35:56.721Z,15.30
2023-05-07T02:38:24.262Z,15.30
2023-05-07T02:40:50.874Z,15.30
2023-05-07T02:43:17.609Z,15.30
2023-05-07T02:45:47.341Z,15.40
2023-05-07T02:48:15.177Z,15.40
2023-05-07T02:50:41.944Z,15.30
2023-05-07T02:53:08.681Z,15.40
2023-05-07T02:55:35.318Z,15.40
2023-05-07T02:58:02.098Z,15.30
2023-05-07T03:00:32.026Z,15.30
2023-05-07T03:03:09.827Z,15.30
2023-05-07T03:05:36.707Z,15.30
2023-05-07T03:08:04.817Z,15.30
2023-05-07T03:10:31.681Z,15.30
2023-05-07T03:12:58.364Z,15.30
2023-05-07T03:15:25.115Z,15.40
2023-05-07T03:17:52.453Z,15.30
2023-05-07T03:20:20.144Z,15.30
2023-05-07T03:22:46.804Z,15.30
2023-05-07T03:25:14.992Z,15.20
2023-05-07T03:27:42.839Z,15.20
2023-05-07T03:30:10.840Z,15.20
2023-05-07T03:32:37.753Z,15.10
2023-05-07T03:35:08.526Z,15.10
2023-05-07T03:37:35.391Z,15.00
2023-05-07T03:40:03.082Z,15.00
2023-05-07T03:42:32.519Z,15.00
2023-05-07T03:44:59.798Z,14.90
2023-05-07T03:47:26.974Z,14.90
2023-05-07T03:49:54.886Z,14.90
2023-05-07T03:52:26.793Z,14.90
2023-05-07T03:54:55.718Z,14.80
2023-05-07T03:57:22.648Z,14.90
2023-05-07T03:59:49.471Z,14.80
2023-05-07T04:02:16.424Z,14.80
2023-05-07T04:04:43.259Z,14.80
2023-05-07T04:07:10.873Z,14.70
2023-05-07T04:09:41.444Z,14.70
2023-05-07T04:12:08.118Z,14.70
2023-05-07T04:14:35.491Z,14.80
2023-05-07T04:17:03.736Z,14.70
2023-05-07T04:19:31.115Z,14.70
2023-05-07T04:21:57.832Z,14.70
2023-05-07T04:24:24.704Z,14.80
2023-05-07T04:26:52.141Z,14.80
2023-05-07T04:29:20.739Z,14.80
2023-05-07T04:31:47.500Z,14.80
2023-05-07T04:34:15.143Z,14.80
2023-05-07T04:36:43.440Z,14.90
2023-05-07T04:39:12.078Z,14.90
2023-05-07T04:41:41.210Z,14.90
2023-05-07T04:44:10.206Z,15.00
2023-05-07T04:46:36.982Z,15.00
2023-05-07T04:49:04.216Z,15.10
2023-05-07T04:51:31.297Z,15.00
2023-05-07T04:53:58.141Z,15.10
2023-05-07T04:56:28.106Z,15.10
2023-05-07T04:58:54.832Z,15.10
2023-05-07T05:01:22.374Z,15.10
2023-05-07T05:03:49.296Z,15.10
2023-05-07T05:06:16.217Z,15.10
2023-05-07T05:08:42.913Z,15.10
2023-05-07T05:11:10.804Z,15.20
2023-05-07T05:13:37.497Z,15.20
2023-05-07T05:16:11.659Z,15.30
2023-05-07T05:18:39.601Z,15.40
2023-05-07T05:21:06.288Z,15.40
2023-05-07T05:23:33.856Z,15.60
2023-05-07T05:26:01.177Z,15.70
2023-05-07T05:28:31.553Z,15.70
2023-05-07T05:30:58.249Z,15.70
2023-05-07T05:33:27.382Z,15.80
2023-05-07T05:35:55.714Z,15.90
2023-05-07T05:38:22.557Z,15.90
2023-05-07T05:40:50.117Z,16.00
2023-05-07T05:43:16.820Z,16.00
2023-05-07T05:45:43.567Z,16.00
2023-05-07T05:48:10.766Z,16.10
2023-05-07T05:50:38.444Z,16.10
2023-05-07T05:53:06.273Z,16.10
2023-05-07T05:55:33.740Z,16.10
2023-05-07T05:58:01.775Z,16.10
2023-05-07T06:00:30.602Z,16.20
2023-05-07T06:03:02.593Z,16.20
2023-05-07T06:05:29.437Z,16.30
2023-05-07T06:07:57.361Z,16.20
2023-05-07T06:10:25.179Z,16.30
2023-05-07T06:12:51.927Z,16.40
2023-05-07T06:15:18.734Z,16.40
2023-05-07T06:17:46.234Z,16.40
2023-05-07T06:20:13.142Z,16.40
2023-05-07T06:22:40.929Z,16.50
2023-05-07T06:25:09.704Z,16.40
2023-05-07T06:27:36.718Z,16.50
2023-05-07T06:30:03.639Z,16.60
2023-05-07T06:32:30.478Z,16.50
2023-05-07T06:34:57.185Z,16.60
2023-05-07T06:37:23.920Z,16.60
2023-05-07T06:39:54.906Z,16.60
2023-05-07T06:42:22.690Z,16.80
2023-05-07T06:44:50.504Z,16.80
2023-05-07T06:47:18.674Z,16.80
2023-05-07T06:49:50.208Z,16.70
2023-05-07T06:52:19.186Z,16.70
2023-05-07T06:54:47.066Z,16.80
2023-05-07T06:57:16.188Z,16.90
2023-05-07T06:59:42.959Z,16.90
2023-05-07T07:02:10.682Z,17.00
2023-05-07T07:04:37.482Z,17.10
2023-05-07T07:07:08.886Z,17.20
2023-05-07T07:09:36.250Z,17.30
2023-05-07T07:12:05.101Z,17.40
2023-05-07T07:14:31.980Z,17.40
2023-05-07T07:16:58.916Z,17.60
2023-05-07T07:19:27.255Z,17.60
2023-05-07T07:21:55.663Z,17.80
2023-05-07T07:24:22.656Z,17.80
2023-05-07T07:26:53.834Z,17.90
2023-05-07T07:29:21.707Z,18.10
2023-05-07T07:31:51.047Z,18.40
2023-05-07T07:34:19.073Z,18.60
2023-05-07T07:36:46.999Z,19.00
2023-05-07T07:39:17.140Z,19.20
2023-05-07T07:41:45.160Z,19.60
2023-05-07T07:44:15.938Z,19.70
2023-05-07T07:46:46.244Z,19.90
2023-05-07T07:49:13.063Z,20.00
2023-05-07T07:51:39.973Z,20.20
2023-05-07T07:54:06.957Z,20.40
2023-05-07T07:56:35.140Z,20.70
2023-05-07T07:59:03.684Z,20.80
2023-05-07T08:01:32.225Z,21.00
2023-05-07T08:04:00.070Z,21.20
2023-05-07T08:06:28.475Z,21.30
2023-05-07T08:08:56.145Z,21.50
2023-05-07T08:11:23.456Z,21.80
2023-05-07T08:13:51.037Z,21.90
2023-05-07T08:16:17.890Z,21.90
2023-05-07T08:18:44.832Z,21.90
2023-05-07T08:21:12.303Z,21.90
2023-05-07T08:23:39.645Z,21.60
2023-05-07T08:26:09.010Z,21.50
2023-05-07T08:28:37.052Z,21.50
2023-05-07T08:31:03.836Z,21.50
2023-05-07T08:33:35.128Z,21.30
2023-05-07T08:36:01.834Z,21.10
2023-05-07T08:38:28.853Z,21.00
2023-05-07T08:40:55.789Z,21.00
2023-05-07T08:43:25.001Z,21.10
2023-05-07T08:45:55.854Z,21.20
2023-05-07T08:48:27.100Z,21.30
2023-05-07T08:51:05.079Z,21.40
2023-05-07T08:53:32.427Z,21.40
2023-05-07T08:56:00.323Z,21.50
2023-05-07T08:58:29.059Z,21.50
2023-05-07T09:00:56.676Z,21.60
2023-05-07T09:03:24.527Z,21.70
2023-05-07T09:05:53.617Z,21.90
2023-05-07T09:08:28.601Z,22.10
2023-05-07T09:10:58.261Z,22.40
2023-05-07T09:13:25.099Z,22.60
2023-05-07T09:15:51.995Z,22.80
2023-05-07T09:18:19.655Z,23.00
2023-05-07T09:20:48.584Z,23.10
2023-05-07T09:23:17.764Z,23.10
2023-05-07T09:25:44.804Z,23.00
2023-05-07T09:28:24.475Z,23.30
2023-05-07T09:30:51.225Z,23.20
2023-05-07T09:33:18.071Z,23.20
2023-05-07T09:35:52.564Z,23.40
2023-05-07T09:38:22.218Z,23.50
2023-05-07T09:41:06.492Z,23.50
2023-05-07T09:43:38.951Z,23.50
2023-05-07T09:46:13.077Z,23.40
2023-05-07T09:48:44.025Z,23.50
2023-05-07T09:51:27.853Z,23.50
2023-05-07T09:53:56.940Z,23.60
2023-05-07T09:56:26.282Z,23.70
2023-05-07T09:58:55.730Z,23.70
2023-05-07T10:01:23.524Z,23.70
2023-05-07T10:03:52.236Z,23.60
2023-05-07T10:06:20.901Z,23.80
2023-05-07T10:08:48.441Z,23.80
2023-05-07T10:11:16.580Z,23.80
2023-05-07T10:13:44.305Z,23.70
2023-05-07T10:16:11.665Z,23.60
2023-05-07T10:18:46.561Z,23.60
2023-05-07T10:21:20.549Z,23.50
2023-05-07T10:24:01.355Z,23.60
2023-05-07T10:26:32.155Z,23.60
2023-05-07T10:29:11.866Z,23.60
2023-05-07T10:32:15.961Z,23.60
2023-05-07T10:34:46.430Z,23.70
2023-05-07T10:37:14.017Z,24.00
2023-05-07T10:39:42.072Z,24.20
2023-05-07T10:42:14.526Z,24.30
2023-05-07T10:44:46.662Z,24.30
2023-05-07T10:47:21.255Z,24.30
2023-05-07T10:49:51.586Z,24.30
2023-05-07T10:52:27.511Z,24.40
2023-05-07T10:55:22.439Z,24.00
2023-05-07T10:57:57.632Z,23.80
2023-05-07T11:00:38.597Z,23.80
2023-05-07T11:03:08.782Z,23.70
2023-05-07T11:06:11.907Z,23.50
2023-05-07T11:09:11.147Z,23.40
2023-05-07T11:11:53.552Z,23.60
2023-05-07T11:14:44.960Z,23.60
2023-05-07T11:17:15.878Z,23.80
2023-05-07T11:19:52.961Z,23.70
2023-05-07T11:22:40.717Z,23.60
2023-05-07T11:25:26.683Z,23.60
2023-05-07T11:28:11.957Z,23.60
2023-05-07T11:30:44.837Z,23.70
2023-05-07T11:33:19.431Z,23.70
2023-05-07T11:35:48.153Z,23.80
2023-05-07T11:38:19.254Z,23.90
2023-05-07T11:41:01.611Z,24.00
2023-05-07T11:43:28.542Z,24.00
2023-05-07T11:45:55.287Z,24.00
2023-05-07T11:48:23.344Z,23.90
2023-05-07T11:50:54.660Z,24.00
2023-05-07T11:53:25.243Z,24.10
2023-05-07T11:55:58.388Z,24.10
2023-05-07T11:58:29.150Z,24.10
2023-05-07T12:00:55.931Z,23.90
2023-05-07T12:03:22.734Z,23.90
2023-05-07T12:05:49.953Z,23.90
2023-05-07T12:08:21.683Z,23.90
2023-05-07T12:10:50.292Z,23.90
2023-05-07T12:13:24.257Z,23.90
2023-05-07T12:15:55.888Z,23.80
2023-05-07T12:18:23.756Z,23.60
2023-05-07T12:20:51.741Z,23.70
2023-05-07T12:23:19.148Z,23.80
2023-05-07T12:25:49.157Z,23.90
2023-05-07T12:28:17.476Z,24.00
2023-05-07T12:30:49.069Z,24.10
2023-05-07T12:33:24.053Z,23.90
2023-05-07T12:35:51.197Z,23.90
2023-05-07T12:38:19.084Z,23.90
2023-05-07T12:40:48.349Z,23.90
2023-05-07T12:43:30.730Z,24.00
2023-05-07T12:46:00.446Z,24.00
2023-05-07T12:48:30.265Z,24.00
2023-05-07T12:50:58.620Z,24.00
2023-05-07T12:53:27.178Z,24.00
2023-05-07T12:55:56.188Z,23.90
2023-05-07T12:58:34.930Z,23.90
2023-05-07T13:01:06.116Z,23.90
2023-05-07T13:03:35.563Z,23.90
2023-05-07T13:06:04.945Z,23.80
2023-05-07T13:08:44.249Z,23.80
2023-05-07T13:11:11.732Z,23.80
2023-05-07T13:13:41.612Z,23.80
2023-05-07T13:16:10.452Z,23.90
2023-05-07T13:18:38.850Z,23.90
2023-05-07T13:21:05.737Z,23.80
2023-05-07T13:23:32.500Z,23.80
2023-05-07T13:26:00.140Z,23.80
2023-05-07T13:28:27.920Z,23.80
2023-05-07T13:30:55.512Z,23.80
2023-05-07T13:33:22.491Z,23.80
2023-05-07T13:35:49.215Z,23.80
2023-05-07T13:38:16.902Z,23.80
2023-05-07T13:40:43.660Z,23.80
2023-05-07T13:43:11.410Z,23.80
2023-05-07T13:45:38.252Z,23.70
2023-05-07T13:48:05.237Z,23.50
2023-05-07T13:50:32.083Z,23.50
2023-05-07T13:52:58.782Z,23.50
2023-05-07T13:55:25.920Z,23.40
2023-05-07T13:58:00.159Z,23.50
2023-05-07T14:00:27.965Z,23.50
2023-05-07T14:02:55.904Z,23.40
2023-05-07T14:05:27.645Z,23.40
2023-05-07T14:07:55.007Z,23.40
2023-05-07T14:10:21.756Z,23.40
2023-05-07T14:12:48.626Z,23.40
2023-05-07T14:15:16.949Z,23.30
2023-05-07T14:17:44.391Z,23.50
2023-05-07T14:20:11.996Z,23.50
2023-05-07T14:22:38.786Z,23.50
2023-05-07T14:25:07.378Z,23.50
2023-05-07T14:27:34.371Z,23.40
2023-05-07T14:30:01.171Z,23.30
2023-05-07T14:32:28.000Z,23.10
2023-05-07T14:34:54.694Z,22.90
2023-05-07T14:37:21.420Z,22.50
2023-05-07T14:39:50.819Z,22.30
2023-05-07T14:42:18.158Z,22.00
2023-05-07T14:44:46.409Z,21.80
2023-05-07T14:47:13.822Z,21.60
2023-05-07T14:49:42.003Z,21.50
2023-05-07T14:52:10.826Z,21.40
2023-05-07T14:54:38.883Z,21.30
2023-05-07T14:57:06.911Z,21.30
2023-05-07T14:59:33.788Z,21.20
2023-05-07T15:02:01.245Z,21.30
2023-05-07T15:04:29.299Z,21.30
2023-05-07T15:06:56.999Z,21.40
2023-05-07T15:09:23.719Z,21.30
2023-05-07T15:11:50.451Z,20.80
2023-05-07T15:14:17.174Z,20.20
2023-05-07T15:16:43.913Z,19.50
2023-05-07T15:19:10.737Z,19.30
2023-05-07T15:21:37.692Z,19.00
2023-05-07T15:24:04.800Z,18.60
2023-05-07T15:26:31.454Z,18.40
2023-05-07T15:28:58.230Z,18.40
2023-05-07T15:31:27.756Z,18.30
2023-05-07T15:33:55.335Z,18.20
2023-05-07T15:36:22.064Z,18.10
2023-05-07T15:38:48.788Z,18.00
2023-05-07T15:41:15.467Z,17.80
2023-05-07T15:43:51.505Z,17.80
2023-05-07T15:46:19.800Z,18.00
2023-05-07T15:48:47.217Z,18.00
2023-05-07T15:51:14.137Z,18.10
2023-05-07T15:53:41.149Z,18.10
2023-05-07T15:56:08.300Z,18.20
2023-05-07T15:58:36.237Z,18.20
2023-05-07T16:01:04.151Z,18.30
2023-05-07T16:03:31.500Z,18.30
2023-05-07T16:06:00.661Z,18.30
2023-05-07T16:08:27.665Z,18.40
2023-05-07T16:10:54.806Z,18.50
2023-05-07T16:13:21.699Z,18.50
2023-05-07T16:15:48.624Z,18.30
2023-05-07T16:18:18.307Z,18.20
2023-05-07T16:20:46.659Z,18.20
2023-05-07T16:23:13.447Z,18.20
2023-05-07T16:25:40.263Z,18.20
2023-05-07T16:28:07.898Z,18.20
2023-05-07T16:30:34.801Z,18.30
2023-05-07T16:33:01.573Z,18.20
2023-05-07T16:35:28.484Z,18.30
2023-05-07T16:37:55.406Z,18.50
2023-05-07T16:40:22.318Z,18.50
2023-05-07T16:42:49.020Z,18.50
2023-05-07T16:45:16.278Z,18.40
2023-05-07T16:47:43.190Z,18.40
2023-05-07T16:50:10.178Z,18.40
2023-05-07T16:52:36.952Z,18.40
2023-05-07T16:55:03.862Z,18.40
2023-05-07T16:57:30.885Z,18.30
2023-05-07T16:59:58.940Z,18.40
2023-05-07T17:02:25.807Z,18.30
2023-05-07T17:04:52.558Z,18.30
2023-05-07T17:07:19.309Z,18.30
2023-05-07T17:09:45.970Z,18.20
2023-05-07T17:12:12.636Z,18.20
2023-05-07T17:14:39.421Z,18.20
2023-05-07T17:17:07.278Z,18.20
2023-05-07T17:19:37.980Z,18.20
2023-05-07T17:22:06.477Z,18.20
2023-05-07T17:24:33.227Z,18.20
2023-05-07T17:26:59.879Z,18.20
2023-05-07T17:29:26.604Z,18.20
2023-05-07T17:31:53.278Z,18.20
2023-05-07T17:34:19.985Z,18.30
2023-05-07T17:36:46.653Z,18.30
2023-05-07T17:39:13.342Z,18.20
2023-05-07T17:41:40.005Z,18.20
2023-05-07T17:44:06.732Z,18.30
2023-05-07T17:46:33.556Z,18.30
2023-05-07T17:49:00.410Z,18.40
2023-05-07T17:51:33.633Z,18.30
2023-05-07T17:54:05.899Z,18.40
2023-05-07T17:56:32.784Z,18.40
2023-05-07T17:58:59.700Z,18.50
2023-05-07T18:01:26.657Z,18.50
2023-05-07T18:03:53.576Z,18.50
2023-05-07T18:06:21.934Z,18.60
2023-05-07T18:08:48.956Z,18.50
2023-05-07T18:11:15.794Z,18.50
2023-05-07T18:13:42.536Z,18.50
2023-05-07T18:16:10.087Z,18.60
2023-05-07T18:18:36.945Z,18.50
2023-05-07T18:21:03.742Z,18.50
2023-05-07T18:23:30.519Z,18.40
2023-05-07T18:25:57.216Z,18.50
2023-05-07T18:28:23.869Z,18.40
2023-05-07T18:30:50.715Z,18.40
2023-05-07T18:33:17.536Z,18.40
2023-05-07T18:35:44.321Z,18.40
2023-05-07T18:38:11.132Z,18.30
2023-05-07T18:40:43.672Z,18.20
2023-05-07T18:43:11.113Z,18.00
2023-05-07T18:45:38.202Z,18.00
2023-05-07T18:48:06.643Z,17.90
2023-05-07T18:50:33.815Z,18.00
2023-05-07T18:53:00.572Z,18.00
2023-05-07T18:55:27.584Z,17.90
2023-05-07T18:57:54.242Z,17.80
2023-05-07T19:00:21.012Z,17.90
2023-05-07T19:02:47.731Z,17.90
2023-05-07T19:05:14.428Z,17.70
2023-05-07T19:07:41.190Z,17.70
2023-05-07T19:10:08.528Z,17.60
2023-05-07T19:12:35.218Z,17.50
2023-05-07T19:15:02.014Z,17.70
2023-05-07T19:17:28.811Z,17.70
2023-05-07T19:19:55.500Z,17.70
2023-05-07T19:22:22.255Z,17.70
2023-05-07T19:24:49.061Z,17.70
2023-05-07T19:27:15.823Z,17.80
2023-05-07T19:29:43.446Z,17.80
2023-05-07T19:32:10.303Z,17.80
2023-05-07T19:34:36.998Z,17.80
2023-05-07T19:37:05.572Z,17.80
2023-05-07T19:39:32.229Z,17.80
2023-05-07T19:41:58.957Z,17.70
2023-05-07T19:44:25.822Z,17.50
2023-05-07T19:46:52.681Z,17.50
2023-05-07T19:49:19.420Z,17.30
2023-05-07T19:51:46.098Z,17.20
2023-05-07T19:54:12.972Z,17.20
2023-05-07T19:56:41.636Z,17.10
2023-05-07T19:59:08.679Z,17.10
2023-05-07T20:01:36.109Z,17.10
2023-05-07T20:04:03.126Z,17.00
2023-05-07T20:06:29.892Z,17.10
2023-05-07T20:08:56.822Z,17.10
2023-05-07T20:11:23.574Z,17.00
2023-05-07T20:13:50.409Z,17.00
2023-05-07T20:16:17.130Z,17.10
2023-05-07T20:18:43.902Z,17.10
2023-05-07T20:21:11.738Z,17.10
2023-05-07T20:23:38.449Z,17.20
2023-05-07T20:26:05.126Z,17.20
2023-05-07T20:28:31.990Z,17.20
2023-05-07T20:30:58.658Z,17.20
2023-05-07T20:33:26.772Z,17.20
2023-05-07T20:35:53.823Z,17.20
2023-05-07T20:38:20.802Z,17.30
2023-05-07T20:40:47.518Z,17.30
2023-05-07T20:43:14.440Z,17.30
2023-05-07T20:45:41.131Z,17.30
2023-05-07T20:48:07.867Z,17.30
2023-05-07T20:50:34.543Z,17.20
2023-05-07T20:53:01.889Z,17.30
2023-05-07T20:55:28.600Z,17.30
2023-05-07T20:57:55.340Z,17.20
2023-05-07T21:00:22.139Z,17.20
2023-05-07T21:02:48.856Z,17.20
2023-05-07T21:05:15.613Z,17.30
2023-05-07T21:07:42.293Z,17.20
2023-05-07T21:10:09.500Z,17.30
2023-05-07T21:12:36.461Z,17.20
2023-05-07T21:15:03.716Z,17.20
2023-05-07T21:17:32.925Z,17.20
2023-05-07T21:19:59.613Z,17.20
2023-05-07T21:22:26.340Z,17.10
2023-05-07T21:24:53.005Z,17.10
2023-05-07T21:27:19.767Z,17.00
2023-05-07T21:29:46.431Z,16.90
2023-05-07T21:32:13.157Z,16.80
2023-05-07T21:34:39.836Z,16.80
2023-05-07T21:37:06.583Z,16.80
2023-05-07T21:39:33.278Z,16.80
2023-05-07T21:41:59.956Z,16.70
2023-05-07T21:44:29.664Z,16.70
2023-05-07T21:46:56.320Z,16.70
2023-05-07T21:49:23.258Z,16.60
2023-05-07T21:51:50.069Z,16.50
2023-05-07T21:54:16.755Z,16.50
2023-05-07T21:56:43.458Z,16.50
2023-05-07T21:59:10.089Z,16.40
2023-05-07T22:01:36.783Z,16.40
2023-05-07T22:04:03.763Z,16.40
2023-05-07T22:06:31.242Z,16.30
2023-05-07T22:08:57.903Z,16.30
2023-05-07T22:11:24.712Z,16.20
2023-05-07T22:13:51.456Z,16.30
2023-05-07T22:16:18.119Z,16.30
2023-05-07T22:18:44.919Z,16.40
2023-05-07T22:21:11.709Z,16.30
2023-05-07T22:23:38.428Z,16.30
2023-05-07T22:26:13.340Z,16.30
2023-05-07T22:28:40.777Z,16.20
2023-05-07T22:31:07.465Z,16.20
2023-05-07T22:33:34.981Z,16.20
2023-05-07T22:36:01.883Z,16.20
2023-05-07T22:38:28.674Z,16.20
2023-05-07T22:40:55.325Z,16.20
2023-05-07T22:43:21.990Z,16.20
2023-05-07T22:45:48.655Z,16.20
2023-05-07T22:48:15.359Z,16.20
2023-05-07T22:50:42.185Z,16.20
2023-05-07T22:53:08.866Z,16.10
2023-05-07T22:55:35.555Z,16.10
2023-05-07T22:58:02.222Z,16.10
2023-05-07T23:00:28.916Z,16.10
2023-05-07T23:02:55.641Z,16.10
2023-05-07T23:05:22.756Z,16.10
2023-05-07T23:07:49.454Z,16.10
2023-05-07T23:10:16.211Z,16.10
2023-05-07T23:12:43.783Z,16.10
2023-05-07T23:15:11.060Z,16.10
2023-05-07T23:17:37.834Z,16.10
2023-05-07T23:20:04.897Z,16.10
2023-05-07T23:22:31.578Z,16.20
2023-05-07T23:24:58.230Z,16.20
2023-05-07T23:27:24.913Z,16.20
2023-05-07T23:29:51.610Z,16.20
2023-05-07T23:32:18.263Z,16.20
2023-05-07T23:34:49.080Z,16.20
2023-05-07T23:37:15.719Z,16.20
2023-05-07T23:39:42.502Z,16.20
2023-05-07T23:42:10.047Z,16.20
2023-05-07T23:44:36.802Z,16.20
2023-05-07T23:47:03.474Z,16.20
2023-05-07T23:49:30.232Z,16.20
2023-05-07T23:51:56.880Z,16.20
2023-05-07T23:54:24.208Z,16.20
2023-05-07T23:56:50.873Z,16.10
2023-05-07T23:59:17.910Z,16.10
